sensor_id;sensor_type;location;lat;lon;timestamp;temperature;humidity
75363;DHT22;64122;51.988;5.892;2022-11-12T06:22:51;4.43;85.29
75363;DHT22;64122;51.988;5.892;2022-11-12T06:25:40;4.88;85.52
75363;DHT22;64122;51.988;5.892;2022-11-12T06:28:28;5.36;84.81
75363;DHT22;64122;51.988;5.892;2022-11-12T06:31:17;5.78;83.74
75363;DHT22;64122;51.988;5.892;2022-11-12T06:34:04;6.14;82.81
75363;DHT22;64122;51.988;5.892;2022-11-12T06:36:52;6.44;82.02
75363;DHT22;64122;51.988;5.892;2022-11-12T06:39:42;6.69;81.29
75363;DHT22;64122;51.988;5.892;2022-11-12T06:42:30;6.88;80.65
75363;DHT22;64122;51.988;5.892;2022-11-12T06:45:19;7.09;80.07
75363;DHT22;64122;51.988;5.892;2022-11-12T06:48:07;7.25;79.53
75363;DHT22;64122;51.988;5.892;2022-11-12T06:50:56;7.37;79.04
75363;DHT22;64122;51.988;5.892;2022-11-12T06:53:45;7.49;78.56
75363;DHT22;64122;51.988;5.892;2022-11-12T06:56:35;7.58;77.98
75363;DHT22;64122;51.988;5.892;2022-11-12T06:59:23;7.68;77.73
75363;DHT22;64122;51.988;5.892;2022-11-12T07:02:11;7.76;77.34
75363;DHT22;64122;51.988;5.892;2022-11-12T07:04:59;7.83;76.89
75363;DHT22;64122;51.988;5.892;2022-11-12T07:07:47;7.89;76.49
75363;DHT22;64122;51.988;5.892;2022-11-12T07:10:36;7.91;76.15
75363;DHT22;64122;51.988;5.892;2022-11-12T07:13:29;7.94;75.95
75363;DHT22;64122;51.988;5.892;2022-11-12T07:16:17;8.01;75.58
75363;DHT22;64122;51.988;5.892;2022-11-12T07:19:06;8.05;75.41
75363;DHT22;64122;51.988;5.892;2022-11-12T07:21:54;8.11;75.02
75363;DHT22;64122;51.988;5.892;2022-11-12T07:24:44;8.11;74.90
75363;DHT22;64122;51.988;5.892;2022-11-12T07:27:32;8.19;74.80
75363;DHT22;64122;51.988;5.892;2022-11-12T07:30:22;8.22;74.62
75363;DHT22;64122;51.988;5.892;2022-11-12T07:33:10;8.29;74.43
75363;DHT22;64122;51.988;5.892;2022-11-12T07:36:00;8.34;74.31
75363;DHT22;64122;51.988;5.892;2022-11-12T07:38:50;8.37;74.18
75363;DHT22;64122;51.988;5.892;2022-11-12T07:41:38;8.44;74.10
75363;DHT22;64122;51.988;5.892;2022-11-12T07:44:26;8.48;73.99
75363;DHT22;64122;51.988;5.892;2022-11-12T07:47:16;8.56;73.75
75363;DHT22;64122;51.988;5.892;2022-11-12T07:50:05;8.64;73.58
75363;DHT22;64122;51.988;5.892;2022-11-12T07:52:57;8.73;73.41
75363;DHT22;64122;51.988;5.892;2022-11-12T07:55:52;8.81;73.40
75363;DHT22;64122;51.988;5.892;2022-11-12T07:58:40;8.92;73.07
75363;DHT22;64122;51.988;5.892;2022-11-12T08:01:29;9.03;72.91
75363;DHT22;64122;51.988;5.892;2022-11-12T08:04:20;9.10;72.64
75363;DHT22;64122;51.988;5.892;2022-11-12T08:07:08;9.20;72.54
75363;DHT22;64122;51.988;5.892;2022-11-12T08:09:56;9.30;72.36
75363;DHT22;64122;51.988;5.892;2022-11-12T08:12:44;9.39;72.05
75363;DHT22;64122;51.988;5.892;2022-11-12T08:15:32;9.50;71.80
75363;DHT22;64122;51.988;5.892;2022-11-12T08:18:20;9.60;71.56
75363;DHT22;64122;51.988;5.892;2022-11-12T08:21:12;9.70;71.44
75363;DHT22;64122;51.988;5.892;2022-11-12T08:24:00;9.85;70.88
75363;DHT22;64122;51.988;5.892;2022-11-12T08:26:48;10.25;69.93
75363;DHT22;64122;51.988;5.892;2022-11-12T08:29:36;12.48;63.36
75363;DHT22;64122;51.988;5.892;2022-11-12T08:32:24;15.00;56.63
75363;DHT22;64122;51.988;5.892;2022-11-12T08:35:12;16.70;52.51
75363;DHT22;64122;51.988;5.892;2022-11-12T08:38:04;17.52;51.00
75363;DHT22;64122;51.988;5.892;2022-11-12T08:40:59;17.74;50.77
75363;DHT22;64122;51.988;5.892;2022-11-12T08:43:46;18.24;48.94
75363;DHT22;64122;51.988;5.892;2022-11-12T08:46:35;18.30;48.66
75363;DHT22;64122;51.988;5.892;2022-11-12T08:49:23;17.91;49.33
75363;DHT22;64122;51.988;5.892;2022-11-12T08:52:11;16.60;52.59
75363;DHT22;64122;51.988;5.892;2022-11-12T08:55:01;15.30;55.77
75363;DHT22;64122;51.988;5.892;2022-11-12T08:57:49;14.48;57.98
75363;DHT22;64122;51.988;5.892;2022-11-12T09:00:39;13.84;59.25
75363;DHT22;64122;51.988;5.892;2022-11-12T09:03:27;13.41;60.16
75363;DHT22;64122;51.988;5.892;2022-11-12T09:06:15;13.18;60.49
75363;DHT22;64122;51.988;5.892;2022-11-12T09:09:03;12.99;60.85
75363;DHT22;64122;51.988;5.892;2022-11-12T09:11:53;13.15;60.47
75363;DHT22;64122;51.988;5.892;2022-11-12T09:14:41;13.66;58.80
75363;DHT22;64122;51.988;5.892;2022-11-12T09:17:29;14.44;56.66
75363;DHT22;64122;51.988;5.892;2022-11-12T09:20:19;15.40;53.81
75363;DHT22;64122;51.988;5.892;2022-11-12T09:23:08;15.85;52.91
75363;DHT22;64122;51.988;5.892;2022-11-12T09:25:56;16.03;52.34
75363;DHT22;64122;51.988;5.892;2022-11-12T09:28:47;16.29;52.08
75363;DHT22;64122;51.988;5.892;2022-11-12T09:31:36;16.14;52.24
75363;DHT22;64122;51.988;5.892;2022-11-12T09:34:24;15.88;53.08
75363;DHT22;64122;51.988;5.892;2022-11-12T09:37:12;15.70;53.69
75363;DHT22;64122;51.988;5.892;2022-11-12T09:40:00;15.47;54.69
75363;DHT22;64122;51.988;5.892;2022-11-12T09:42:51;15.16;55.57
75363;DHT22;64122;51.988;5.892;2022-11-12T09:45:42;14.91;56.23
75363;DHT22;64122;51.988;5.892;2022-11-12T09:48:33;14.60;57.32
75363;DHT22;64122;51.988;5.892;2022-11-12T09:51:25;14.37;57.84
75363;DHT22;64122;51.988;5.892;2022-11-12T09:54:21;14.27;58.18
75363;DHT22;64122;51.988;5.892;2022-11-12T09:57:11;14.17;58.04
75363;DHT22;64122;51.988;5.892;2022-11-12T09:59:59;14.12;58.01
75363;DHT22;64122;51.988;5.892;2022-11-12T10:02:52;13.98;58.77
75363;DHT22;64122;51.988;5.892;2022-11-12T10:05:46;13.93;58.77
75363;DHT22;64122;51.988;5.892;2022-11-12T10:08:40;13.93;58.74
75363;DHT22;64122;51.988;5.892;2022-11-12T10:11:46;14.00;59.09
75363;DHT22;64122;51.988;5.892;2022-11-12T10:14:59;14.10;58.89
75363;DHT22;64122;51.988;5.892;2022-11-12T10:18:08;14.18;58.65
75363;DHT22;64122;51.988;5.892;2022-11-12T10:21:02;14.28;58.32
75363;DHT22;64122;51.988;5.892;2022-11-12T10:23:52;14.38;58.15
75363;DHT22;64122;51.988;5.892;2022-11-12T10:26:40;14.51;57.76
75363;DHT22;64122;51.988;5.892;2022-11-12T10:29:31;14.56;57.39
75363;DHT22;64122;51.988;5.892;2022-11-12T10:32:23;14.55;57.60
75363;DHT22;64122;51.988;5.892;2022-11-12T10:35:16;14.60;57.39
75363;DHT22;64122;51.988;5.892;2022-11-12T10:38:10;14.54;57.04
75363;DHT22;64122;51.988;5.892;2022-11-12T10:41:09;14.59;57.21
75363;DHT22;64122;51.988;5.892;2022-11-12T10:44:05;14.69;56.87
75363;DHT22;64122;51.988;5.892;2022-11-12T10:47:21;14.72;57.15
75363;DHT22;64122;51.988;5.892;2022-11-12T10:50:24;14.71;57.04
75363;DHT22;64122;51.988;5.892;2022-11-12T10:53:29;14.83;56.96
75363;DHT22;64122;51.988;5.892;2022-11-12T10:56:25;14.93;56.34
75363;DHT22;64122;51.988;5.892;2022-11-12T10:59:17;15.00;56.17
75363;DHT22;64122;51.988;5.892;2022-11-12T11:02:15;15.02;56.36
75363;DHT22;64122;51.988;5.892;2022-11-12T11:05:29;15.01;56.61
75363;DHT22;64122;51.988;5.892;2022-11-12T11:08:31;15.04;56.74
75363;DHT22;64122;51.988;5.892;2022-11-12T11:11:22;15.10;56.11
75363;DHT22;64122;51.988;5.892;2022-11-12T11:14:31;15.14;56.46
75363;DHT22;64122;51.988;5.892;2022-11-12T11:17:21;15.18;55.71
75363;DHT22;64122;51.988;5.892;2022-11-12T11:20:17;15.23;55.75
75363;DHT22;64122;51.988;5.892;2022-11-12T11:23:13;15.29;55.74
75363;DHT22;64122;51.988;5.892;2022-11-12T11:26:13;15.32;55.66
75363;DHT22;64122;51.988;5.892;2022-11-12T11:29:17;15.33;56.10
75363;DHT22;64122;51.988;5.892;2022-11-12T11:32:18;15.37;56.07
75363;DHT22;64122;51.988;5.892;2022-11-12T11:35:16;15.42;55.68
75363;DHT22;64122;51.988;5.892;2022-11-12T11:38:19;15.48;56.06
75363;DHT22;64122;51.988;5.892;2022-11-12T11:41:19;15.55;55.86
75363;DHT22;64122;51.988;5.892;2022-11-12T11:44:20;15.62;55.59
75363;DHT22;64122;51.988;5.892;2022-11-12T11:47:23;15.68;55.65
75363;DHT22;64122;51.988;5.892;2022-11-12T11:50:24;15.70;55.83
75363;DHT22;64122;51.988;5.892;2022-11-12T11:53:20;15.74;55.53
75363;DHT22;64122;51.988;5.892;2022-11-12T11:56:15;15.81;55.35
75363;DHT22;64122;51.988;5.892;2022-11-12T11:59:20;15.85;55.36
75363;DHT22;64122;51.988;5.892;2022-11-12T12:02:30;15.89;55.55
75363;DHT22;64122;51.988;5.892;2022-11-12T12:05:32;15.95;55.37
75363;DHT22;64122;51.988;5.892;2022-11-12T12:08:38;16.00;54.73
75363;DHT22;64122;51.988;5.892;2022-11-12T12:11:31;16.04;54.12
75363;DHT22;64122;51.988;5.892;2022-11-12T12:14:31;16.07;54.46
75363;DHT22;64122;51.988;5.892;2022-11-12T12:17:36;16.12;54.43
75363;DHT22;64122;51.988;5.892;2022-11-12T12:20:34;16.18;53.64
75363;DHT22;64122;51.988;5.892;2022-11-12T12:23:32;16.22;53.62
75363;DHT22;64122;51.988;5.892;2022-11-12T12:26:23;16.27;53.87
75363;DHT22;64122;51.988;5.892;2022-11-12T12:29:16;16.27;53.98
75363;DHT22;64122;51.988;5.892;2022-11-12T12:32:06;16.21;55.53
75363;DHT22;64122;51.988;5.892;2022-11-12T12:35:02;16.27;54.37
75363;DHT22;64122;51.988;5.892;2022-11-12T12:38:00;16.27;54.20
75363;DHT22;64122;51.988;5.892;2022-11-12T12:40:56;16.29;54.39
75363;DHT22;64122;51.988;5.892;2022-11-12T12:43:48;16.31;54.16
75363;DHT22;64122;51.988;5.892;2022-11-12T12:46:41;16.34;54.35
75363;DHT22;64122;51.988;5.892;2022-11-12T12:49:33;16.39;54.33
75363;DHT22;64122;51.988;5.892;2022-11-12T12:52:23;16.44;54.42
75363;DHT22;64122;51.988;5.892;2022-11-12T12:55:33;16.43;54.70
75363;DHT22;64122;51.988;5.892;2022-11-12T12:58:27;16.45;54.20
75363;DHT22;64122;51.988;5.892;2022-11-12T13:01:28;16.43;54.53
75363;DHT22;64122;51.988;5.892;2022-11-12T13:04:50;16.42;54.87
75363;DHT22;64122;51.988;5.892;2022-11-12T13:07:41;16.45;54.75
75363;DHT22;64122;51.988;5.892;2022-11-12T13:13:42;16.45;55.01
75363;DHT22;64122;51.988;5.892;2022-11-12T13:16:57;16.41;55.52
75363;DHT22;64122;51.988;5.892;2022-11-12T13:20:14;16.40;54.97
75363;DHT22;64122;51.988;5.892;2022-11-12T13:22:54;16.39;54.94
75363;DHT22;64122;51.988;5.892;2022-11-12T13:25:43;16.36;54.99
75363;DHT22;64122;51.988;5.892;2022-11-12T13:28:31;16.34;55.10
75363;DHT22;64122;51.988;5.892;2022-11-12T13:31:27;16.31;55.38
75363;DHT22;64122;51.988;5.892;2022-11-12T13:34:21;16.29;55.40
75363;DHT22;64122;51.988;5.892;2022-11-12T13:37:17;16.28;55.71
75363;DHT22;64122;51.988;5.892;2022-11-12T13:40:10;16.27;55.76
75363;DHT22;64122;51.988;5.892;2022-11-12T13:43:05;16.24;55.79
75363;DHT22;64122;51.988;5.892;2022-11-12T13:45:56;16.21;55.86
75363;DHT22;64122;51.988;5.892;2022-11-12T13:48:52;16.19;56.07
75363;DHT22;64122;51.988;5.892;2022-11-12T13:51:43;16.22;56.03
75363;DHT22;64122;51.988;5.892;2022-11-12T13:54:35;16.20;56.14
75363;DHT22;64122;51.988;5.892;2022-11-12T13:57:28;16.16;56.23
75363;DHT22;64122;51.988;5.892;2022-11-12T14:00:22;16.15;56.56
75363;DHT22;64122;51.988;5.892;2022-11-12T14:03:16;16.14;56.69
75363;DHT22;64122;51.988;5.892;2022-11-12T14:06:14;16.12;56.83
75363;DHT22;64122;51.988;5.892;2022-11-12T14:12:44;16.01;57.39
75363;DHT22;64122;51.988;5.892;2022-11-12T14:15:50;15.93;57.65
75363;DHT22;64122;51.988;5.892;2022-11-12T14:18:51;15.92;57.90
75363;DHT22;64122;51.988;5.892;2022-11-12T14:22:08;15.87;58.13
75363;DHT22;64122;51.988;5.892;2022-11-12T14:24:59;15.87;58.18
75363;DHT22;64122;51.988;5.892;2022-11-12T14:27:48;15.83;58.41
75363;DHT22;64122;51.988;5.892;2022-11-12T14:30:42;15.80;58.72
75363;DHT22;64122;51.988;5.892;2022-11-12T14:33:31;15.80;58.85
75363;DHT22;64122;51.988;5.892;2022-11-12T14:36:20;15.74;59.03
75363;DHT22;64122;51.988;5.892;2022-11-12T14:39:11;15.69;59.19
75363;DHT22;64122;51.988;5.892;2022-11-12T14:41:59;15.66;59.35
75363;DHT22;64122;51.988;5.892;2022-11-12T14:44:47;15.59;59.51
75363;DHT22;64122;51.988;5.892;2022-11-12T14:47:35;15.58;59.63
75363;DHT22;64122;51.988;5.892;2022-11-12T14:50:27;15.55;59.76
75363;DHT22;64122;51.988;5.892;2022-11-12T14:53:21;15.48;59.86
75363;DHT22;64122;51.988;5.892;2022-11-12T14:56:17;15.43;59.97
75363;DHT22;64122;51.988;5.892;2022-11-12T14:59:09;15.40;60.06
75363;DHT22;64122;51.988;5.892;2022-11-12T15:02:06;15.34;60.15
75363;DHT22;64122;51.988;5.892;2022-11-12T15:04:59;15.32;60.27
75363;DHT22;64122;51.988;5.892;2022-11-12T15:07:52;15.28;60.41
75363;DHT22;64122;51.988;5.892;2022-11-12T15:10:41;15.26;60.37
75363;DHT22;64122;51.988;5.892;2022-11-12T15:13:37;15.14;60.51
75363;DHT22;64122;51.988;5.892;2022-11-12T15:16:29;15.08;60.64
75363;DHT22;64122;51.988;5.892;2022-11-12T15:19:20;15.06;60.70
75363;DHT22;64122;51.988;5.892;2022-11-12T15:22:17;14.97;60.83
75363;DHT22;64122;51.988;5.892;2022-11-12T15:25:18;14.92;60.83
75363;DHT22;64122;51.988;5.892;2022-11-12T15:28:12;14.86;60.83
75363;DHT22;64122;51.988;5.892;2022-11-12T15:31:06;14.81;60.83
75363;DHT22;64122;51.988;5.892;2022-11-12T15:34:26;14.74;60.99
75363;DHT22;64122;51.988;5.892;2022-11-12T15:37:21;14.69;60.95
75363;DHT22;64122;51.988;5.892;2022-11-12T15:40:15;14.65;60.90
75363;DHT22;64122;51.988;5.892;2022-11-12T15:43:11;14.58;60.98
75363;DHT22;64122;51.988;5.892;2022-11-12T15:46:03;14.54;60.94
75363;DHT22;64122;51.988;5.892;2022-11-12T15:48:51;14.50;60.85
75363;DHT22;64122;51.988;5.892;2022-11-12T15:51:39;14.45;60.84
75363;DHT22;64122;51.988;5.892;2022-11-12T15:54:27;14.41;60.89
75363;DHT22;64122;51.988;5.892;2022-11-12T15:57:17;14.34;61.02
75363;DHT22;64122;51.988;5.892;2022-11-12T16:00:12;14.32;61.03
75363;DHT22;64122;51.988;5.892;2022-11-12T16:03:12;14.23;61.17
75363;DHT22;64122;51.988;5.892;2022-11-12T16:06:00;14.22;61.15
75363;DHT22;64122;51.988;5.892;2022-11-12T16:08:48;14.15;61.34
75363;DHT22;64122;51.988;5.892;2022-11-12T16:11:36;14.10;61.44
75363;DHT22;64122;51.988;5.892;2022-11-12T16:14:24;14.05;61.58
75363;DHT22;64122;51.988;5.892;2022-11-12T16:17:17;13.97;61.81
75363;DHT22;64122;51.988;5.892;2022-11-12T16:20:12;13.90;61.96
75363;DHT22;64122;51.988;5.892;2022-11-12T16:23:00;13.86;62.07
75363;DHT22;64122;51.988;5.892;2022-11-12T16:25:48;13.80;62.26
75363;DHT22;64122;51.988;5.892;2022-11-12T16:28:36;13.73;62.45
75363;DHT22;64122;51.988;5.892;2022-11-12T16:31:24;13.68;62.55
75363;DHT22;64122;51.988;5.892;2022-11-12T16:34:12;13.64;62.62
75363;DHT22;64122;51.988;5.892;2022-11-12T16:37:02;13.59;62.68
75363;DHT22;64122;51.988;5.892;2022-11-12T16:39:50;13.54;62.73
75363;DHT22;64122;51.988;5.892;2022-11-12T16:42:39;13.50;62.86
75363;DHT22;64122;51.988;5.892;2022-11-12T16:45:33;13.45;63.04
75363;DHT22;64122;51.988;5.892;2022-11-12T16:48:21;13.31;63.18
75363;DHT22;64122;51.988;5.892;2022-11-12T16:51:14;13.34;63.26
75363;DHT22;64122;51.988;5.892;2022-11-12T16:54:06;13.29;63.46
75363;DHT22;64122;51.988;5.892;2022-11-12T16:56:54;13.26;63.62
75363;DHT22;64122;51.988;5.892;2022-11-12T16:59:42;13.23;63.70
75363;DHT22;64122;51.988;5.892;2022-11-12T17:02:30;13.20;63.78
75363;DHT22;64122;51.988;5.892;2022-11-12T17:05:20;13.17;63.86
75363;DHT22;64122;51.988;5.892;2022-11-12T17:08:08;13.15;64.02
75363;DHT22;64122;51.988;5.892;2022-11-12T17:11:04;13.09;64.07
75363;DHT22;64122;51.988;5.892;2022-11-12T17:13:54;13.08;64.20
75363;DHT22;64122;51.988;5.892;2022-11-12T17:16:43;13.06;64.41
75363;DHT22;64122;51.988;5.892;2022-11-12T17:19:31;13.04;64.43
75363;DHT22;64122;51.988;5.892;2022-11-12T17:22:20;12.99;64.53
75363;DHT22;64122;51.988;5.892;2022-11-12T17:25:08;12.96;64.65
75363;DHT22;64122;51.988;5.892;2022-11-12T17:27:59;12.93;64.70
75363;DHT22;64122;51.988;5.892;2022-11-12T17:30:47;12.91;64.80
75363;DHT22;64122;51.988;5.892;2022-11-12T17:33:39;12.87;64.85
75363;DHT22;64122;51.988;5.892;2022-11-12T17:36:27;12.88;64.98
75363;DHT22;64122;51.988;5.892;2022-11-12T17:39:17;12.84;65.02
75363;DHT22;64122;51.988;5.892;2022-11-12T17:42:05;12.79;65.13
75363;DHT22;64122;51.988;5.892;2022-11-12T17:44:56;12.76;65.21
75363;DHT22;64122;51.988;5.892;2022-11-12T17:47:43;12.74;65.24
75363;DHT22;64122;51.988;5.892;2022-11-12T17:50:32;12.72;65.25
75363;DHT22;64122;51.988;5.892;2022-11-12T17:53:20;12.69;65.37
75363;DHT22;64122;51.988;5.892;2022-11-12T17:56:09;12.66;65.39
75363;DHT22;64122;51.988;5.892;2022-11-12T17:58:57;12.66;65.41
75363;DHT22;64122;51.988;5.892;2022-11-12T18:01:48;12.61;65.43
75363;DHT22;64122;51.988;5.892;2022-11-12T18:04:36;12.64;65.36
75363;DHT22;64122;51.988;5.892;2022-11-12T18:07:24;12.61;65.36
75363;DHT22;64122;51.988;5.892;2022-11-12T18:10:12;12.60;65.36
75363;DHT22;64122;51.988;5.892;2022-11-12T18:13:00;12.63;65.29
75363;DHT22;64122;51.988;5.892;2022-11-12T18:15:48;12.62;65.29
75363;DHT22;64122;51.988;5.892;2022-11-12T18:18:39;12.61;65.25
75363;DHT22;64122;51.988;5.892;2022-11-12T18:21:26;12.63;65.26
75363;DHT22;64122;51.988;5.892;2022-11-12T18:24:15;12.64;65.30
75363;DHT22;64122;51.988;5.892;2022-11-12T18:27:02;12.65;65.29
75363;DHT22;64122;51.988;5.892;2022-11-12T18:29:50;12.63;65.33
75363;DHT22;64122;51.988;5.892;2022-11-12T18:32:38;12.62;65.32
75363;DHT22;64122;51.988;5.892;2022-11-12T18:35:28;12.59;65.38
75363;DHT22;64122;51.988;5.892;2022-11-12T18:38:20;12.57;65.42
75363;DHT22;64122;51.988;5.892;2022-11-12T18:41:09;12.53;65.53
75363;DHT22;64122;51.988;5.892;2022-11-12T18:43:57;12.52;65.56
75363;DHT22;64122;51.988;5.892;2022-11-12T18:46:45;12.48;65.61
75363;DHT22;64122;51.988;5.892;2022-11-12T18:49:33;12.46;65.66
75363;DHT22;64122;51.988;5.892;2022-11-12T18:52:23;12.44;65.64
75363;DHT22;64122;51.988;5.892;2022-11-12T18:55:11;12.43;65.66
75363;DHT22;64122;51.988;5.892;2022-11-12T18:57:59;12.41;65.62
75363;DHT22;64122;51.988;5.892;2022-11-12T19:00:47;12.36;65.77
75363;DHT22;64122;51.988;5.892;2022-11-12T19:03:34;12.36;65.78
75363;DHT22;64122;51.988;5.892;2022-11-12T19:06:23;12.34;65.92
75363;DHT22;64122;51.988;5.892;2022-11-12T19:09:14;12.31;66.01
75363;DHT22;64122;51.988;5.892;2022-11-12T19:12:02;12.33;66.05
75363;DHT22;64122;51.988;5.892;2022-11-12T19:14:49;12.34;66.04
75363;DHT22;64122;51.988;5.892;2022-11-12T19:17:37;12.34;66.03
75363;DHT22;64122;51.988;5.892;2022-11-12T19:20:27;12.33;65.99
75363;DHT22;64122;51.988;5.892;2022-11-12T19:23:15;12.32;66.05
75363;DHT22;64122;51.988;5.892;2022-11-12T19:26:09;12.28;66.15
75363;DHT22;64122;51.988;5.892;2022-11-12T19:28:58;12.27;66.30
75363;DHT22;64122;51.988;5.892;2022-11-12T19:31:46;12.27;66.30
75363;DHT22;64122;51.988;5.892;2022-11-12T19:34:34;12.23;66.23
75363;DHT22;64122;51.988;5.892;2022-11-12T19:37:21;12.23;66.27
75363;DHT22;64122;51.988;5.892;2022-11-12T19:40:10;12.21;66.28
75363;DHT22;64122;51.988;5.892;2022-11-12T19:43:01;12.21;66.29
75363;DHT22;64122;51.988;5.892;2022-11-12T19:45:49;12.26;66.13
75363;DHT22;64122;51.988;5.892;2022-11-12T19:48:37;12.22;66.12
75363;DHT22;64122;51.988;5.892;2022-11-12T19:51:25;12.22;66.11
75363;DHT22;64122;51.988;5.892;2022-11-12T19:54:14;12.19;66.05
75363;DHT22;64122;51.988;5.892;2022-11-12T19:57:03;12.13;66.17
75363;DHT22;64122;51.988;5.892;2022-11-12T19:59:53;12.10;66.17
75363;DHT22;64122;51.988;5.892;2022-11-12T20:02:41;12.10;66.26
75363;DHT22;64122;51.988;5.892;2022-11-12T20:05:29;12.07;66.29
75363;DHT22;64122;51.988;5.892;2022-11-12T20:08:22;12.01;66.29
75363;DHT22;64122;51.988;5.892;2022-11-12T20:11:10;11.98;66.33
75363;DHT22;64122;51.988;5.892;2022-11-12T20:13:59;11.98;66.46
75363;DHT22;64122;51.988;5.892;2022-11-12T20:16:50;11.94;66.58
75363;DHT22;64122;51.988;5.892;2022-11-12T20:19:38;11.93;66.61
75363;DHT22;64122;51.988;5.892;2022-11-12T20:22:28;11.89;66.67
75363;DHT22;64122;51.988;5.892;2022-11-12T20:25:16;11.86;66.72
75363;DHT22;64122;51.988;5.892;2022-11-12T20:28:04;11.85;66.78
75363;DHT22;64122;51.988;5.892;2022-11-12T20:30:59;11.82;66.81
75363;DHT22;64122;51.988;5.892;2022-11-12T20:33:49;11.78;66.94
75363;DHT22;64122;51.988;5.892;2022-11-12T20:36:38;11.78;67.12
75363;DHT22;64122;51.988;5.892;2022-11-12T20:39:26;11.77;66.94
75363;DHT22;64122;51.988;5.892;2022-11-12T20:42:16;11.77;66.94
75363;DHT22;64122;51.988;5.892;2022-11-12T20:45:04;11.73;67.07
75363;DHT22;64122;51.988;5.892;2022-11-12T20:47:54;11.74;67.04
75363;DHT22;64122;51.988;5.892;2022-11-12T20:50:44;11.71;67.04
75363;DHT22;64122;51.988;5.892;2022-11-12T20:53:32;11.68;67.17
75363;DHT22;64122;51.988;5.892;2022-11-12T20:56:22;11.69;67.11
75363;DHT22;64122;51.988;5.892;2022-11-12T20:59:10;11.69;67.07
75363;DHT22;64122;51.988;5.892;2022-11-12T21:01:58;11.69;67.26
75363;DHT22;64122;51.988;5.892;2022-11-12T21:04:46;11.70;67.10
75363;DHT22;64122;51.988;5.892;2022-11-12T21:07:40;11.69;66.89
75363;DHT22;64122;51.988;5.892;2022-11-12T21:10:29;11.69;66.96
75363;DHT22;64122;51.988;5.892;2022-11-12T21:13:17;11.67;66.98
75363;DHT22;64122;51.988;5.892;2022-11-12T21:16:06;11.63;67.14
75363;DHT22;64122;51.988;5.892;2022-11-12T21:18:58;11.61;67.14
75363;DHT22;64122;51.988;5.892;2022-11-12T21:21:46;11.60;67.14
75363;DHT22;64122;51.988;5.892;2022-11-12T21:24:36;11.57;67.21
75363;DHT22;64122;51.988;5.892;2022-11-12T21:27:24;11.55;67.14
75363;DHT22;64122;51.988;5.892;2022-11-12T21:30:12;11.51;67.12
75363;DHT22;64122;51.988;5.892;2022-11-12T21:33:00;11.51;67.10
75363;DHT22;64122;51.988;5.892;2022-11-12T21:35:50;11.51;67.10
75363;DHT22;64122;51.988;5.892;2022-11-12T21:38:39;11.53;67.09
75363;DHT22;64122;51.988;5.892;2022-11-12T21:41:31;11.53;66.98
75363;DHT22;64122;51.988;5.892;2022-11-12T21:44:18;11.56;66.91
